createdAt,value
2023-02-12T00:02:02.238Z,100.00
2023-02-12T00:04:16.473Z,100.00
2023-02-12T00:06:29.136Z,100.00
2023-02-12T00:08:41.814Z,100.00
2023-02-12T00:10:54.359Z,100.00
2023-02-12T00:13:06.879Z,100.00
2023-02-12T00:15:19.502Z,100.00
2023-02-12T00:17:32.053Z,100.00
2023-02-12T00:19:44.701Z,100.00
2023-02-12T00:21:57.318Z,100.00
2023-02-12T00:24:09.887Z,100.00
2023-02-12T00:26:23.394Z,100.00
2023-02-12T00:28:36.307Z,100.00
2023-02-12T00:30:49.009Z,100.00
2023-02-12T00:33:01.657Z,100.00
2023-02-12T00:35:14.171Z,100.00
2023-02-12T00:37:26.742Z,100.00
2023-02-12T00:39:39.787Z,100.00
2023-02-12T00:41:52.328Z,100.00
2023-02-12T00:44:04.991Z,100.00
2023-02-12T00:46:17.827Z,100.00
2023-02-12T00:48:30.925Z,100.00
2023-02-12T00:50:47.474Z,100.00
2023-02-12T00:53:00.058Z,100.00
2023-02-12T00:55:12.622Z,100.00
2023-02-12T00:57:25.190Z,100.00
2023-02-12T00:59:40.042Z,100.00
2023-02-12T01:01:54.873Z,100.00
2023-02-12T01:04:07.675Z,100.00
2023-02-12T01:06:20.222Z,100.00
2023-02-12T01:08:32.885Z,100.00
2023-02-12T01:10:45.563Z,100.00
2023-02-12T01:12:58.185Z,100.00
2023-02-12T01:15:10.895Z,100.00
2023-02-12T01:17:23.408Z,100.00
2023-02-12T01:19:35.941Z,100.00
2023-02-12T01:21:48.487Z,100.00
2023-02-12T01:24:01.968Z,100.00
2023-02-12T01:26:16.388Z,100.00
2023-02-12T01:28:28.966Z,100.00
2023-02-12T01:30:41.562Z,100.00
2023-02-12T01:32:55.545Z,100.00
2023-02-12T01:35:10.122Z,100.00
2023-02-12T01:37:22.645Z,100.00
2023-02-12T01:39:35.853Z,100.00
2023-02-12T01:41:48.492Z,100.00
2023-02-12T01:44:20.938Z,100.00
2023-02-12T01:46:33.601Z,100.00
2023-02-12T01:48:48.084Z,100.00
2023-02-12T01:51:02.678Z,100.00
2023-02-12T01:53:20.261Z,100.00
2023-02-12T01:55:32.885Z,100.00
2023-02-12T01:57:47.189Z,100.00
2023-02-12T02:00:02.685Z,100.00
2023-02-12T02:02:15.325Z,100.00
2023-02-12T02:04:31.854Z,100.00
2023-02-12T02:06:50.577Z,100.00
2023-02-12T02:09:04.316Z,100.00
2023-02-12T02:11:52.123Z,100.00
2023-02-12T02:14:23.315Z,100.00
2023-02-12T02:16:37.277Z,100.00
2023-02-12T02:19:06.885Z,100.00
2023-02-12T02:21:38.233Z,100.00
2023-02-12T02:24:09.547Z,100.00
2023-02-12T02:26:45.065Z,100.00
2023-02-12T02:29:09.520Z,100.00
2023-02-12T02:31:46.998Z,100.00
2023-02-12T02:34:16.003Z,100.00
2023-02-12T02:37:00.834Z,100.00
2023-02-12T02:39:23.577Z,100.00
2023-02-12T02:42:00.048Z,100.00
2023-02-12T02:44:21.125Z,100.00
2023-02-12T02:46:41.987Z,100.00
2023-02-12T02:49:01.925Z,100.00
2023-02-12T02:51:20.233Z,100.00
2023-02-12T02:53:38.628Z,100.00
2023-02-12T02:55:54.562Z,100.00
2023-02-12T02:58:17.370Z,100.00
2023-02-12T03:00:48.762Z,100.00
2023-02-12T03:03:12.145Z,100.00
2023-02-12T03:05:40.356Z,100.00
2023-02-12T03:07:59.036Z,100.00
2023-02-12T03:10:18.927Z,100.00
2023-02-12T03:12:43.293Z,100.00
2023-02-12T03:15:24.525Z,100.00
2023-02-12T03:17:44.430Z,100.00
2023-02-12T03:20:06.000Z,100.00
2023-02-12T03:22:28.071Z,100.00
2023-02-12T03:24:48.928Z,100.00
2023-02-12T03:27:07.398Z,100.00
2023-02-12T03:29:20.218Z,100.00
2023-02-12T03:31:54.012Z,100.00
2023-02-12T03:34:44.774Z,100.00
2023-02-12T03:37:04.815Z,100.00
2023-02-12T03:39:28.850Z,100.00
2023-02-12T03:41:50.077Z,100.00
2023-02-12T03:44:15.210Z,100.00
2023-02-12T03:46:57.844Z,100.00
2023-02-12T03:49:27.554Z,100.00
2023-02-12T03:51:44.657Z,100.00
2023-02-12T03:53:57.925Z,100.00
2023-02-12T03:56:15.946Z,100.00
2023-02-12T03:58:30.496Z,100.00
2023-02-12T04:00:43.356Z,100.00
2023-02-12T04:02:57.090Z,100.00
2023-02-12T04:05:17.852Z,100.00
2023-02-12T04:07:30.540Z,100.00
2023-02-12T04:09:43.621Z,100.00
2023-02-12T04:12:03.897Z,100.00
2023-02-12T04:14:16.386Z,100.00
2023-02-12T04:16:37.959Z,100.00
2023-02-12T04:18:52.275Z,100.00
2023-02-12T04:21:29.095Z,100.00
2023-02-12T04:23:53.087Z,100.00
2023-02-12T04:26:23.808Z,100.00
2023-02-12T04:29:05.421Z,100.00
2023-02-12T04:31:29.608Z,100.00
2023-02-12T04:33:53.196Z,100.00
2023-02-12T04:36:15.444Z,100.00
2023-02-12T04:38:34.792Z,100.00
2023-02-12T04:40:48.019Z,100.00
2023-02-12T04:43:01.183Z,100.00
2023-02-12T04:45:22.864Z,100.00
2023-02-12T04:47:35.405Z,100.00
2023-02-12T04:49:47.958Z,100.00
2023-02-12T04:52:00.594Z,100.00
2023-02-12T04:54:14.652Z,100.00
2023-02-12T04:56:27.212Z,100.00
2023-02-12T04:58:40.879Z,100.00
2023-02-12T05:00:53.448Z,100.00
2023-02-12T05:03:06.032Z,100.00
2023-02-12T05:05:18.706Z,100.00
2023-02-12T05:07:31.224Z,100.00
2023-02-12T05:09:43.768Z,100.00
2023-02-12T05:11:56.263Z,100.00
2023-02-12T05:14:08.769Z,100.00
2023-02-12T05:16:22.599Z,100.00
2023-02-12T05:18:35.755Z,100.00
2023-02-12T05:20:56.967Z,100.00
2023-02-12T05:23:09.477Z,100.00
2023-02-12T05:25:22.118Z,100.00
2023-02-12T05:27:34.665Z,100.00
2023-02-12T05:29:47.258Z,100.00
2023-02-12T05:31:59.996Z,100.00
2023-02-12T05:34:12.949Z,100.00
2023-02-12T05:36:25.822Z,100.00
2023-02-12T05:38:38.324Z,100.00
2023-02-12T05:40:50.815Z,100.00
2023-02-12T05:43:03.396Z,100.00
2023-02-12T05:45:16.042Z,100.00
2023-02-12T05:47:28.561Z,100.00
2023-02-12T05:49:41.182Z,100.00
2023-02-12T05:51:53.695Z,100.00
2023-02-12T05:54:07.290Z,100.00
2023-02-12T05:56:23.040Z,100.00
2023-02-12T05:58:35.750Z,100.00
2023-02-12T06:00:48.376Z,100.00
2023-02-12T06:03:01.005Z,100.00
2023-02-12T06:05:13.689Z,100.00
2023-02-12T06:07:27.857Z,100.00
2023-02-12T06:09:40.459Z,100.00
2023-02-12T06:11:52.977Z,100.00
2023-02-12T06:14:07.114Z,100.00
2023-02-12T06:16:22.689Z,100.00
2023-02-12T06:18:36.389Z,100.00
2023-02-12T06:20:48.932Z,100.00
2023-02-12T06:23:01.443Z,100.00
2023-02-12T06:25:14.360Z,100.00
2023-02-12T06:27:26.913Z,100.00
2023-02-12T06:29:39.457Z,100.00
2023-02-12T06:31:52.193Z,100.00
2023-02-12T06:34:07.841Z,100.00
2023-02-12T06:36:21.556Z,100.00
2023-02-12T06:38:35.121Z,100.00
2023-02-12T06:40:48.089Z,100.00
2023-02-12T06:43:00.782Z,100.00
2023-02-12T06:45:13.398Z,100.00
2023-02-12T06:47:27.101Z,100.00
2023-02-12T06:49:42.464Z,100.00
2023-02-12T06:51:55.044Z,100.00
2023-02-12T06:54:13.768Z,100.00
2023-02-12T06:56:27.431Z,100.00
2023-02-12T06:58:49.259Z,100.00
2023-02-12T07:01:17.796Z,100.00
2023-02-12T07:03:30.350Z,100.00
2023-02-12T07:05:42.958Z,100.00
2023-02-12T07:07:55.587Z,100.00
2023-02-12T07:10:08.872Z,100.00
2023-02-12T07:12:21.416Z,100.00
2023-02-12T07:14:34.176Z,100.00
2023-02-12T07:16:46.739Z,100.00
2023-02-12T07:18:59.374Z,100.00
2023-02-12T07:21:13.379Z,100.00
2023-02-12T07:23:25.997Z,100.00
2023-02-12T07:25:38.703Z,100.00
2023-02-12T07:27:51.233Z,100.00
2023-02-12T07:30:05.506Z,100.00
2023-02-12T07:32:18.070Z,100.00
2023-02-12T07:34:30.666Z,100.00
2023-02-12T07:36:43.345Z,100.00
2023-02-12T07:38:57.278Z,100.00
2023-02-12T07:41:16.474Z,100.00
2023-02-12T07:43:29.150Z,100.00
2023-02-12T07:45:41.700Z,100.00
2023-02-12T07:47:54.265Z,100.00
2023-02-12T07:50:07.242Z,100.00
2023-02-12T07:52:19.768Z,100.00
2023-02-12T07:54:32.344Z,100.00
2023-02-12T07:56:46.927Z,100.00
2023-02-12T07:59:05.204Z,100.00
2023-02-12T08:01:21.555Z,100.00
2023-02-12T08:03:34.112Z,100.00
2023-02-12T08:05:46.612Z,100.00
2023-02-12T08:07:59.133Z,100.00
2023-02-12T08:10:11.742Z,100.00
2023-02-12T08:12:24.302Z,100.00
2023-02-12T08:14:36.844Z,100.00
2023-02-12T08:16:50.809Z,100.00
2023-02-12T08:19:16.563Z,100.00
2023-02-12T08:21:30.465Z,100.00
2023-02-12T08:23:43.095Z,100.00
2023-02-12T08:25:55.918Z,100.00
2023-02-12T08:28:08.628Z,100.00
2023-02-12T08:30:21.177Z,100.00
2023-02-12T08:32:33.824Z,100.00
2023-02-12T08:34:46.405Z,100.00
2023-02-12T08:36:59.604Z,100.00
2023-02-12T08:39:12.700Z,100.00
2023-02-12T08:41:28.289Z,100.00
2023-02-12T08:43:42.736Z,100.00
2023-02-12T08:45:58.018Z,100.00
2023-02-12T08:48:10.858Z,100.00
2023-02-12T08:50:23.360Z,100.00
2023-02-12T08:52:35.893Z,100.00
2023-02-12T08:54:48.430Z,100.00
2023-02-12T08:57:03.607Z,99.96
2023-02-12T08:59:17.077Z,99.99
2023-02-12T09:01:31.632Z,99.94
2023-02-12T09:03:44.965Z,99.75
2023-02-12T09:05:57.809Z,99.58
2023-02-12T09:08:10.439Z,99.45
2023-02-12T09:10:23.011Z,99.16
2023-02-12T09:12:35.506Z,98.86
2023-02-12T09:14:48.097Z,98.77
2023-02-12T09:17:00.704Z,98.61
2023-02-12T09:19:14.595Z,98.77
2023-02-12T09:21:27.337Z,98.46
2023-02-12T09:23:40.699Z,98.40
2023-02-12T09:25:53.207Z,98.32
2023-02-12T09:28:05.864Z,98.17
2023-02-12T09:30:18.783Z,98.14
2023-02-12T09:32:31.390Z,98.01
2023-02-12T09:34:43.908Z,97.92
2023-02-12T09:36:56.447Z,98.16
2023-02-12T09:39:09.023Z,98.18
2023-02-12T09:41:46.679Z,98.02
2023-02-12T09:44:11.415Z,97.93
2023-02-12T09:46:31.300Z,98.17
2023-02-12T09:48:59.362Z,98.05
2023-02-12T09:51:12.645Z,97.28
2023-02-12T09:53:29.227Z,96.34
2023-02-12T09:55:41.840Z,95.85
2023-02-12T09:57:55.076Z,95.68
2023-02-12T10:00:31.079Z,95.11
2023-02-12T10:02:43.843Z,94.66
2023-02-12T10:05:01.580Z,94.18
2023-02-12T10:07:48.064Z,93.60
2023-02-12T10:10:15.931Z,93.82
2023-02-12T10:12:50.452Z,93.57
2023-02-12T10:15:15.019Z,93.38
2023-02-12T10:17:37.719Z,93.18
2023-02-12T10:20:04.293Z,93.18
2023-02-12T10:22:56.518Z,93.12
2023-02-12T10:25:24.562Z,91.91
2023-02-12T10:27:46.687Z,91.45
2023-02-12T10:30:00.833Z,90.77
2023-02-12T10:32:25.685Z,90.19
2023-02-12T10:34:41.385Z,90.03
2023-02-12T10:36:59.426Z,89.24
2023-02-12T10:39:14.722Z,89.37
2023-02-12T10:41:30.114Z,88.98
2023-02-12T10:43:42.772Z,88.74
2023-02-12T10:45:55.845Z,88.14
2023-02-12T10:48:24.256Z,87.68
2023-02-12T10:50:51.966Z,87.46
2023-02-12T10:53:04.537Z,87.71
2023-02-12T10:55:34.959Z,86.95
2023-02-12T10:57:47.554Z,85.99
2023-02-12T11:00:29.733Z,85.73
2023-02-12T11:03:00.418Z,85.56
2023-02-12T11:05:24.387Z,85.80
2023-02-12T11:07:48.565Z,85.88
2023-02-12T11:10:01.154Z,86.21
2023-02-12T11:12:31.711Z,86.06
2023-02-12T11:14:52.845Z,86.05
2023-02-12T11:17:05.683Z,85.95
2023-02-12T11:19:28.220Z,85.86
2023-02-12T11:21:40.809Z,85.13
2023-02-12T11:23:53.417Z,84.65
2023-02-12T11:26:22.388Z,84.48
2023-02-12T11:28:36.843Z,85.04
2023-02-12T11:30:58.823Z,84.88
2023-02-12T11:33:25.962Z,84.59
2023-02-12T11:35:49.408Z,84.50
2023-02-12T11:38:03.436Z,83.73
2023-02-12T11:40:23.862Z,83.26
2023-02-12T11:42:38.449Z,83.12
2023-02-12T11:44:55.022Z,83.32
2023-02-12T11:47:18.780Z,83.22
2023-02-12T11:49:34.278Z,82.87
2023-02-12T11:51:47.915Z,82.63
2023-02-12T11:54:03.548Z,81.87
2023-02-12T11:56:16.684Z,81.30
2023-02-12T11:58:30.729Z,79.90
2023-02-12T12:00:52.333Z,79.61
2023-02-12T12:03:15.227Z,78.37
2023-02-12T12:05:36.914Z,78.81
2023-02-12T12:07:58.621Z,78.34
2023-02-12T12:10:25.720Z,78.72
2023-02-12T12:12:50.864Z,78.81
2023-02-12T12:15:26.255Z,78.03
2023-02-12T12:18:13.931Z,77.57
2023-02-12T12:20:32.035Z,76.49
2023-02-12T12:23:00.808Z,73.93
2023-02-12T12:25:41.463Z,74.08
2023-02-12T12:28:06.555Z,74.74
2023-02-12T12:30:37.677Z,75.38
2023-02-12T12:32:52.792Z,75.88
2023-02-12T12:35:11.193Z,76.01
2023-02-12T12:37:37.032Z,76.38
2023-02-12T12:40:26.806Z,76.58
2023-02-12T12:43:02.464Z,76.99
2023-02-12T12:45:50.328Z,76.65
2023-02-12T12:48:09.629Z,77.00
2023-02-12T12:50:29.681Z,77.12
2023-02-12T12:53:27.887Z,76.55
2023-02-12T12:55:59.040Z,76.64
2023-02-12T12:58:29.641Z,75.55
2023-02-12T13:01:14.687Z,75.71
2023-02-12T13:04:09.162Z,75.10
2023-02-12T13:06:29.242Z,74.86
2023-02-12T13:09:08.017Z,74.63
2023-02-12T13:11:38.943Z,73.52
2023-02-12T13:14:03.302Z,73.41
2023-02-12T13:16:34.715Z,73.36
2023-02-12T13:19:09.164Z,72.28
2023-02-12T13:21:44.175Z,72.27
2023-02-12T13:24:08.175Z,72.27
2023-02-12T13:26:30.984Z,71.97
2023-02-12T13:28:56.857Z,72.25
2023-02-12T13:31:34.374Z,72.55
2023-02-12T13:33:53.076Z,72.43
2023-02-12T13:36:07.372Z,72.80
2023-02-12T13:38:31.260Z,72.02
2023-02-12T13:40:43.965Z,71.42
2023-02-12T13:43:22.189Z,71.00
2023-02-12T13:45:54.824Z,71.19
2023-02-12T13:48:29.261Z,70.63
2023-02-12T13:51:01.071Z,71.11
2023-02-12T13:53:32.282Z,71.54
2023-02-12T13:56:01.776Z,71.68
2023-02-12T13:58:32.910Z,71.72
2023-02-12T14:00:51.490Z,71.70
2023-02-12T14:03:09.331Z,72.00
2023-02-12T14:05:26.565Z,72.09
2023-02-12T14:07:45.777Z,72.29
2023-02-12T14:09:58.420Z,72.13
2023-02-12T14:12:27.272Z,71.97
2023-02-12T14:14:49.996Z,72.02
2023-02-12T14:17:33.524Z,72.07
2023-02-12T14:19:54.766Z,71.69
2023-02-12T14:22:13.266Z,71.79
2023-02-12T14:24:37.876Z,71.85
2023-02-12T14:26:50.661Z,71.88
2023-02-12T14:29:06.637Z,71.93
2023-02-12T14:31:19.584Z,72.33
2023-02-12T14:33:32.296Z,72.41
2023-02-12T14:35:47.052Z,72.45
2023-02-12T14:38:02.303Z,72.88
2023-02-12T14:40:31.880Z,73.10
2023-02-12T14:42:55.844Z,73.40
2023-02-12T14:45:28.358Z,73.61
2023-02-12T14:47:43.422Z,73.69
2023-02-12T14:50:01.489Z,73.96
2023-02-12T14:52:14.494Z,74.19
2023-02-12T14:54:32.818Z,74.27
2023-02-12T14:56:49.311Z,74.49
2023-02-12T14:59:03.742Z,74.47
2023-02-12T15:01:16.998Z,74.44
2023-02-12T15:03:42.951Z,74.39
2023-02-12T15:06:01.942Z,74.62
2023-02-12T15:08:53.156Z,74.86
2023-02-12T15:11:26.434Z,75.03
2023-02-12T15:13:57.143Z,75.02
2023-02-12T15:16:22.242Z,75.26
2023-02-12T15:18:40.997Z,75.49
2023-02-12T15:21:27.740Z,75.55
2023-02-12T15:23:43.034Z,75.72
2023-02-12T15:25:57.108Z,75.93
2023-02-12T15:28:29.689Z,75.95
2023-02-12T15:30:42.851Z,76.08
2023-02-12T15:33:02.407Z,76.30
2023-02-12T15:35:28.450Z,76.40
2023-02-12T15:37:41.083Z,76.57
2023-02-12T15:39:57.113Z,76.64
2023-02-12T15:42:35.532Z,76.74
2023-02-12T15:45:16.204Z,76.70
2023-02-12T15:47:34.778Z,76.70
2023-02-12T15:49:47.569Z,76.76
2023-02-12T15:54:56.797Z,76.90
2023-02-12T15:57:11.429Z,77.03
2023-02-12T15:59:29.046Z,77.21
2023-02-12T16:01:54.289Z,77.38
2023-02-12T16:04:08.285Z,77.69
2023-02-12T16:06:23.152Z,77.91
2023-02-12T16:08:36.050Z,78.10
2023-02-12T16:10:51.877Z,78.45
2023-02-12T16:13:05.017Z,78.55
2023-02-12T16:15:30.829Z,78.78
2023-02-12T16:17:47.749Z,79.29
2023-02-12T16:20:08.845Z,79.73
2023-02-12T16:22:26.226Z,80.37
2023-02-12T16:24:45.654Z,80.85
2023-02-12T16:27:04.401Z,81.31
2023-02-12T16:29:18.267Z,81.69
2023-02-12T16:31:31.058Z,82.14
2023-02-12T16:33:52.563Z,82.33
2023-02-12T16:36:24.268Z,82.61
2023-02-12T16:38:46.058Z,82.43
2023-02-12T16:41:23.516Z,81.83
2023-02-12T16:43:36.135Z,82.02
2023-02-12T16:45:49.442Z,82.16
2023-02-12T16:48:23.295Z,81.97
2023-02-12T16:50:43.336Z,81.38
2023-02-12T16:53:05.421Z,81.08
2023-02-12T16:55:18.071Z,80.52
2023-02-12T16:57:30.729Z,80.23
2023-02-12T16:59:45.229Z,79.97
2023-02-12T17:02:05.120Z,79.89
2023-02-12T17:04:17.827Z,79.76
2023-02-12T17:06:31.703Z,79.70
2023-02-12T17:08:44.474Z,79.74
2023-02-12T17:10:57.004Z,79.87
2023-02-12T17:13:09.673Z,80.00
2023-02-12T17:15:28.441Z,80.46
2023-02-12T17:17:41.010Z,80.54
2023-02-12T17:19:53.606Z,80.87
2023-02-12T17:22:15.872Z,80.82
2023-02-12T17:24:31.374Z,81.08
2023-02-12T17:26:43.984Z,81.20
2023-02-12T17:29:05.099Z,81.38
2023-02-12T17:31:19.538Z,81.54
2023-02-12T17:33:32.876Z,81.94
2023-02-12T17:35:45.676Z,81.77
2023-02-12T17:37:58.307Z,81.92
2023-02-12T17:40:12.557Z,82.05
2023-02-12T17:42:25.147Z,81.85
2023-02-12T17:44:37.890Z,82.02
2023-02-12T17:46:50.557Z,82.12
2023-02-12T17:49:04.233Z,82.01
2023-02-12T17:51:17.395Z,82.06
2023-02-12T17:53:29.930Z,82.01
2023-02-12T17:55:42.560Z,81.86
2023-02-12T17:57:56.075Z,81.57
2023-02-12T18:00:10.505Z,81.54
2023-02-12T18:02:23.104Z,81.44
2023-02-12T18:04:36.300Z,81.53
2023-02-12T18:06:49.013Z,81.64
2023-02-12T18:09:02.012Z,81.79
2023-02-12T18:11:14.837Z,81.89
2023-02-12T18:13:27.507Z,82.05
2023-02-12T18:15:41.176Z,82.37
2023-02-12T18:17:53.699Z,82.44
2023-02-12T18:20:07.129Z,82.69
2023-02-12T18:22:20.645Z,82.80
2023-02-12T18:24:34.917Z,82.94
2023-02-12T18:26:47.832Z,83.17
2023-02-12T18:29:01.065Z,83.34
2023-02-12T18:31:13.798Z,83.63
2023-02-12T18:33:26.630Z,83.77
2023-02-12T18:35:41.819Z,83.94
2023-02-12T18:37:54.502Z,84.07
2023-02-12T18:40:08.276Z,84.23
2023-02-12T18:42:20.840Z,84.40
2023-02-12T18:44:33.558Z,84.54
2023-02-12T18:46:46.147Z,84.61
2023-02-12T18:48:59.296Z,84.86
2023-02-12T18:51:19.472Z,85.04
2023-02-12T18:53:32.216Z,85.15
2023-02-12T18:55:44.786Z,85.44
2023-02-12T18:57:57.374Z,85.54
2023-02-12T19:00:10.405Z,85.69
2023-02-12T19:02:23.209Z,85.91
2023-02-12T19:04:35.917Z,85.94
2023-02-12T19:06:51.296Z,86.23
2023-02-12T19:09:04.349Z,86.32
2023-02-12T19:11:17.239Z,86.49
2023-02-12T19:13:29.736Z,86.55
2023-02-12T19:15:42.596Z,86.79
2023-02-12T19:17:55.297Z,86.92
2023-02-12T19:20:08.742Z,87.21
2023-02-12T19:22:21.268Z,87.28
2023-02-12T19:24:45.810Z,87.49
2023-02-12T19:26:59.083Z,87.75
2023-02-12T19:29:13.303Z,87.89
2023-02-12T19:31:29.892Z,88.17
2023-02-12T19:33:43.703Z,88.46
2023-02-12T19:35:56.259Z,88.69
2023-02-12T19:38:08.942Z,89.29
2023-02-12T19:40:21.717Z,89.71
2023-02-12T19:42:34.326Z,89.92
2023-02-12T19:44:47.302Z,90.38
2023-02-12T19:46:59.942Z,90.88
2023-02-12T19:49:16.516Z,91.44
2023-02-12T19:51:30.625Z,92.08
2023-02-12T19:53:43.638Z,92.35
2023-02-12T19:55:56.242Z,92.81
2023-02-12T19:58:09.596Z,93.59
2023-02-12T20:00:22.652Z,94.22
2023-02-12T20:02:35.444Z,94.45
2023-02-12T20:04:48.356Z,94.76
2023-02-12T20:07:01.241Z,95.48
2023-02-12T20:09:14.169Z,95.79
2023-02-12T20:11:30.364Z,96.35
2023-02-12T20:13:43.349Z,96.74
2023-02-12T20:15:56.062Z,96.87
2023-02-12T20:18:08.760Z,97.34
2023-02-12T20:20:21.786Z,97.79
2023-02-12T20:22:34.369Z,97.94
2023-02-12T20:24:47.309Z,98.29
2023-02-12T20:27:01.632Z,98.68
2023-02-12T20:29:14.200Z,98.73
2023-02-12T20:31:30.888Z,99.22
2023-02-12T20:33:44.346Z,99.52
2023-02-12T20:35:57.361Z,99.65
2023-02-12T20:38:10.440Z,99.93
2023-02-12T20:40:23.051Z,100.00
2023-02-12T20:42:35.764Z,100.00
2023-02-12T20:44:48.472Z,100.00
2023-02-12T20:47:01.137Z,100.00
2023-02-12T20:49:15.564Z,100.00
2023-02-12T20:51:28.464Z,100.00
2023-02-12T20:53:42.608Z,100.00
2023-02-12T20:55:55.169Z,100.00
2023-02-12T20:58:07.742Z,100.00
2023-02-12T21:00:20.657Z,100.00
2023-02-12T21:02:33.467Z,100.00
2023-02-12T21:04:46.122Z,100.00
2023-02-12T21:06:59.256Z,100.00
2023-02-12T21:09:13.906Z,100.00
2023-02-12T21:11:27.998Z,100.00
2023-02-12T21:13:58.938Z,100.00
2023-02-12T21:16:16.713Z,100.00
2023-02-12T21:18:29.883Z,100.00
2023-02-12T21:20:42.421Z,100.00
2023-02-12T21:22:55.007Z,100.00
2023-02-12T21:25:07.777Z,100.00
2023-02-12T21:27:20.353Z,100.00
2023-02-12T21:29:33.353Z,100.00
2023-02-12T21:31:48.700Z,100.00
2023-02-12T21:34:02.765Z,100.00
2023-02-12T21:36:18.612Z,100.00
2023-02-12T21:38:35.453Z,100.00
2023-02-12T21:40:48.074Z,100.00
2023-02-12T21:43:00.629Z,100.00
2023-02-12T21:45:13.201Z,100.00
2023-02-12T21:47:27.234Z,100.00
2023-02-12T21:49:39.931Z,100.00
2023-02-12T21:51:55.324Z,100.00
2023-02-12T21:54:10.457Z,100.00
2023-02-12T21:56:23.667Z,100.00
2023-02-12T21:58:36.221Z,100.00
2023-02-12T22:00:50.362Z,100.00
2023-02-12T22:03:03.030Z,100.00
2023-02-12T22:05:15.729Z,100.00
2023-02-12T22:07:28.247Z,100.00
2023-02-12T22:09:40.813Z,100.00
2023-02-12T22:11:53.424Z,100.00
2023-02-12T22:14:08.121Z,100.00
2023-02-12T22:16:24.318Z,100.00
2023-02-12T22:18:37.553Z,100.00
2023-02-12T22:20:50.117Z,100.00
2023-02-12T22:23:02.774Z,100.00
2023-02-12T22:25:15.411Z,100.00
2023-02-12T22:27:31.291Z,100.00
2023-02-12T22:29:43.812Z,100.00
2023-02-12T22:31:56.481Z,100.00
2023-02-12T22:34:16.136Z,100.00
2023-02-12T22:36:29.246Z,100.00
2023-02-12T22:38:41.812Z,100.00
2023-02-12T22:40:54.393Z,100.00
2023-02-12T22:43:06.917Z,100.00
2023-02-12T22:45:19.540Z,100.00
2023-02-12T22:47:33.223Z,100.00
2023-02-12T22:49:45.747Z,100.00
2023-02-12T22:51:58.270Z,100.00
2023-02-12T22:54:14.768Z,100.00
2023-02-12T22:56:27.498Z,100.00
2023-02-12T22:58:40.167Z,100.00
2023-02-12T23:00:52.684Z,100.00
2023-02-12T23:03:05.230Z,100.00
2023-02-12T23:05:17.864Z,100.00
2023-02-12T23:07:30.461Z,100.00
2023-02-12T23:09:42.919Z,100.00
2023-02-12T23:11:55.404Z,100.00
2023-02-12T23:14:07.971Z,100.00
2023-02-12T23:16:21.211Z,100.00
2023-02-12T23:18:34.217Z,100.00
2023-02-12T23:20:47.183Z,100.00
2023-02-12T23:22:59.732Z,100.00
2023-02-12T23:25:12.321Z,100.00
2023-02-12T23:27:24.873Z,100.00
2023-02-12T23:29:37.485Z,100.00
2023-02-12T23:31:50.081Z,100.00
2023-02-12T23:34:03.153Z,100.00
2023-02-12T23:36:15.720Z,100.00
2023-02-12T23:38:28.263Z,100.00
2023-02-12T23:40:41.247Z,100.00
2023-02-12T23:42:53.824Z,100.00
2023-02-12T23:45:07.481Z,100.00
2023-02-12T23:47:20.057Z,100.00
2023-02-12T23:49:35.157Z,100.00
2023-02-12T23:51:47.757Z,100.00
2023-02-12T23:54:01.852Z,100.00
2023-02-12T23:56:14.328Z,100.00
2023-02-12T23:58:26.975Z,100.00
